createdAt,value
2023-10-02T00:01:12.742Z,8.30
2023-10-02T00:03:42.569Z,8.20
2023-10-02T00:06:12.073Z,8.10
2023-10-02T00:08:44.114Z,8.10
2023-10-02T00:11:34.519Z,8.30
2023-10-02T00:14:23.595Z,8.00
2023-10-02T00:17:01.693Z,8.00
2023-10-02T00:19:32.283Z,8.00
2023-10-02T00:22:05.963Z,8.00
2023-10-02T00:24:36.673Z,8.00
2023-10-02T00:27:04.974Z,8.00
2023-10-02T00:29:34.820Z,7.90
2023-10-02T00:32:12.657Z,7.90
2023-10-02T00:34:41.773Z,8.00
2023-10-02T00:37:13.660Z,7.90
2023-10-02T00:39:42.678Z,7.80
2023-10-02T00:42:30.416Z,7.90
2023-10-02T00:44:59.731Z,7.90
2023-10-02T00:47:43.721Z,7.90
2023-10-02T00:50:12.906Z,7.90
2023-10-02T00:52:43.290Z,7.80
2023-10-02T00:55:12.263Z,7.70
2023-10-02T00:57:48.641Z,7.60
2023-10-02T01:00:32.361Z,7.60
2023-10-02T01:03:05.327Z,7.50
2023-10-02T01:05:52.064Z,7.50
2023-10-02T01:11:25.515Z,7.60
2023-10-02T01:13:55.640Z,7.60
2023-10-02T01:16:23.939Z,7.60
2023-10-02T01:18:54.120Z,7.60
2023-10-02T01:21:25.959Z,7.60
2023-10-02T01:24:12.255Z,7.70
2023-10-02T01:26:51.178Z,7.80
2023-10-02T01:29:19.385Z,7.90
2023-10-02T01:31:49.644Z,8.10
2023-10-02T01:34:35.006Z,8.10
2023-10-02T01:37:24.631Z,8.10
2023-10-02T01:40:14.233Z,8.10
2023-10-02T01:42:42.520Z,8.00
2023-10-02T01:45:11.693Z,8.00
2023-10-02T01:47:42.897Z,8.00
2023-10-02T01:50:12.040Z,8.00
2023-10-02T01:52:51.330Z,8.00
2023-10-02T01:55:31.396Z,7.90
2023-10-02T01:58:18.774Z,7.80
2023-10-02T02:00:47.719Z,7.90
2023-10-02T02:03:19.703Z,7.80
2023-10-02T02:05:48.426Z,7.80
2023-10-02T02:08:25.745Z,7.80
2023-10-02T02:11:16.415Z,7.90
2023-10-02T02:13:48.426Z,7.90
2023-10-02T02:16:23.627Z,7.80
2023-10-02T02:18:55.337Z,7.80
2023-10-02T02:21:25.443Z,7.90
2023-10-02T02:24:04.623Z,7.90
2023-10-02T02:26:34.576Z,7.90
2023-10-02T02:29:03.454Z,7.90
2023-10-02T02:31:32.108Z,7.90
2023-10-02T02:34:01.881Z,7.90
2023-10-02T02:36:35.673Z,8.00
2023-10-02T02:39:16.866Z,8.00
2023-10-02T02:41:47.797Z,8.00
2023-10-02T02:44:34.088Z,8.10
2023-10-02T02:47:08.480Z,8.00
2023-10-02T02:49:50.065Z,8.10
2023-10-02T02:52:20.758Z,8.10
2023-10-02T02:54:49.979Z,8.10
2023-10-02T02:57:27.382Z,8.10
2023-10-02T03:00:18.613Z,8.20
2023-10-02T03:02:48.406Z,8.20
2023-10-02T03:05:17.614Z,8.20
2023-10-02T03:07:46.987Z,8.30
2023-10-02T03:10:21.139Z,8.30
2023-10-02T03:12:51.014Z,8.40
2023-10-02T03:15:19.916Z,8.40
2023-10-02T03:17:48.365Z,8.40
2023-10-02T03:20:26.133Z,8.40
2023-10-02T03:22:55.354Z,8.50
2023-10-02T03:25:42.495Z,8.40
2023-10-02T03:28:17.865Z,8.50
2023-10-02T03:30:48.348Z,8.40
2023-10-02T03:33:22.421Z,8.40
2023-10-02T03:36:09.086Z,8.40
2023-10-02T03:38:37.917Z,8.30
2023-10-02T03:41:06.677Z,8.40
2023-10-02T03:43:44.987Z,8.30
2023-10-02T03:46:17.648Z,8.30
2023-10-02T03:48:52.819Z,8.30
2023-10-02T03:51:37.529Z,8.30
2023-10-02T03:54:20.039Z,8.20
2023-10-02T03:56:50.448Z,8.20
2023-10-02T03:59:22.702Z,8.20
2023-10-02T04:01:51.908Z,8.20
2023-10-02T04:04:25.245Z,8.20
2023-10-02T04:06:55.746Z,8.20
2023-10-02T04:09:25.330Z,8.10
2023-10-02T04:11:54.621Z,8.20
2023-10-02T04:14:32.805Z,8.20
2023-10-02T04:17:14.911Z,8.10
2023-10-02T04:19:49.873Z,8.20
2023-10-02T04:22:21.618Z,8.10
2023-10-02T04:24:54.723Z,8.10
2023-10-02T04:27:23.453Z,8.10
2023-10-02T04:30:06.906Z,8.10
2023-10-02T04:32:35.201Z,8.10
2023-10-02T04:35:26.815Z,8.10
2023-10-02T04:37:58.554Z,8.20
2023-10-02T04:40:39.109Z,8.20
2023-10-02T04:43:23.641Z,8.20
2023-10-02T04:45:55.428Z,8.20
2023-10-02T04:48:28.712Z,8.30
2023-10-02T04:50:57.947Z,8.30
2023-10-02T04:53:26.816Z,8.20
2023-10-02T04:56:09.096Z,8.30
2023-10-02T04:58:41.615Z,8.20
2023-10-02T05:01:26.662Z,8.30
2023-10-02T05:03:54.558Z,8.30
2023-10-02T05:06:40.283Z,8.30
2023-10-02T05:09:21.291Z,8.20
2023-10-02T05:11:54.173Z,8.30
2023-10-02T05:14:28.716Z,8.30
2023-10-02T05:17:18.577Z,8.30
2023-10-02T05:20:02.557Z,8.40
2023-10-02T05:22:33.864Z,8.50
2023-10-02T05:25:06.246Z,8.50
2023-10-02T05:27:37.035Z,8.50
2023-10-02T05:30:06.686Z,8.50
2023-10-02T05:32:37.038Z,8.50
2023-10-02T05:35:17.814Z,8.60
2023-10-02T05:37:47.301Z,8.50
2023-10-02T05:40:34.510Z,8.60
2023-10-02T05:46:56.712Z,8.60
2023-10-02T05:49:27.830Z,8.60
2023-10-02T05:51:57.973Z,8.60
2023-10-02T05:54:30.733Z,8.60
2023-10-02T05:57:10.066Z,8.60
2023-10-02T05:59:46.778Z,8.60
2023-10-02T06:02:16.100Z,8.60
2023-10-02T06:04:48.831Z,8.60
2023-10-02T06:07:20.602Z,8.60
2023-10-02T06:09:49.392Z,8.60
2023-10-02T06:12:19.460Z,8.60
2023-10-02T06:14:50.345Z,8.60
2023-10-02T06:17:20.913Z,8.70
2023-10-02T06:19:52.810Z,8.80
2023-10-02T06:22:21.030Z,8.80
2023-10-02T06:24:49.774Z,8.90
2023-10-02T06:27:18.817Z,8.90
2023-10-02T06:29:50.083Z,8.90
2023-10-02T06:32:21.170Z,9.00
2023-10-02T06:34:52.464Z,9.00
2023-10-02T06:37:26.088Z,9.00
2023-10-02T06:40:05.991Z,9.10
2023-10-02T06:42:37.324Z,9.10
2023-10-02T06:45:10.555Z,9.20
2023-10-02T06:47:38.798Z,9.40
2023-10-02T06:50:29.029Z,9.30
2023-10-02T06:52:59.352Z,9.40
2023-10-02T06:55:28.061Z,9.30
2023-10-02T06:57:58.116Z,9.40
2023-10-02T07:00:37.970Z,9.40
2023-10-02T07:03:09.807Z,9.50
2023-10-02T07:05:44.700Z,9.60
2023-10-02T07:08:22.703Z,9.60
2023-10-02T07:10:51.883Z,9.70
2023-10-02T07:13:23.844Z,9.80
2023-10-02T07:15:56.795Z,9.80
2023-10-02T07:18:39.260Z,9.80
2023-10-02T07:21:11.588Z,9.90
2023-10-02T07:23:40.330Z,10.00
2023-10-02T07:26:15.829Z,10.00
2023-10-02T07:28:52.089Z,10.00
2023-10-02T07:31:21.126Z,10.00
2023-10-02T07:33:49.669Z,10.00
2023-10-02T07:36:19.349Z,10.10
2023-10-02T07:38:48.461Z,10.10
2023-10-02T07:41:24.827Z,10.20
2023-10-02T07:43:55.440Z,10.30
2023-10-02T07:46:24.432Z,10.30
2023-10-02T07:49:02.198Z,10.40
2023-10-02T07:51:37.672Z,10.40
2023-10-02T07:54:08.292Z,10.50
2023-10-02T07:56:37.352Z,10.50
2023-10-02T07:59:09.142Z,10.60
2023-10-02T08:01:38.459Z,10.60
2023-10-02T08:04:07.608Z,10.70
2023-10-02T08:06:48.884Z,10.80
2023-10-02T08:09:41.486Z,10.80
2023-10-02T08:12:10.370Z,10.90
2023-10-02T08:14:43.488Z,11.00
2023-10-02T08:17:23.945Z,11.10
2023-10-02T08:19:58.214Z,11.20
2023-10-02T08:22:37.631Z,11.20
2023-10-02T08:25:15.063Z,11.30
2023-10-02T08:27:46.289Z,11.30
2023-10-02T08:30:28.086Z,11.40
2023-10-02T08:32:58.188Z,11.50
2023-10-02T08:35:27.570Z,11.50
2023-10-02T08:37:57.476Z,11.60
2023-10-02T08:40:26.423Z,11.50
2023-10-02T08:42:56.288Z,11.60
2023-10-02T08:45:24.735Z,11.60
2023-10-02T08:47:53.923Z,11.60
2023-10-02T08:50:22.257Z,11.60
2023-10-02T08:52:51.909Z,11.70
2023-10-02T08:55:34.811Z,11.80
2023-10-02T08:58:17.025Z,11.80
2023-10-02T09:01:07.321Z,11.90
2023-10-02T09:03:42.802Z,12.00
2023-10-02T09:06:33.939Z,12.10
2023-10-02T09:09:23.939Z,12.20
2023-10-02T09:11:55.105Z,12.30
2023-10-02T09:14:41.078Z,12.30
2023-10-02T09:17:16.571Z,12.20
2023-10-02T09:19:50.548Z,12.30
2023-10-02T09:22:19.819Z,12.30
2023-10-02T09:25:00.020Z,12.40
2023-10-02T09:27:32.317Z,12.40
2023-10-02T09:30:18.449Z,12.40
2023-10-02T09:32:54.798Z,12.50
2023-10-02T09:35:57.729Z,12.50
2023-10-02T09:38:26.043Z,12.60
2023-10-02T09:40:55.787Z,12.80
2023-10-02T09:43:26.349Z,12.90
2023-10-02T09:45:57.195Z,13.00
2023-10-02T09:49:05.613Z,13.00
2023-10-02T09:51:46.372Z,13.10
2023-10-02T09:54:29.635Z,13.10
2023-10-02T09:57:08.017Z,13.10
2023-10-02T09:59:47.023Z,13.10
2023-10-02T10:02:38.311Z,13.10
2023-10-02T10:05:32.879Z,13.00
2023-10-02T10:08:19.250Z,13.00
2023-10-02T10:10:50.691Z,13.00
2023-10-02T10:13:27.819Z,13.10
2023-10-02T10:16:22.829Z,13.20
2023-10-02T10:19:23.326Z,13.20
2023-10-02T10:21:59.055Z,13.20
2023-10-02T10:24:33.373Z,13.30
2023-10-02T10:27:02.356Z,13.40
2023-10-02T10:29:39.311Z,13.30
2023-10-02T10:32:25.721Z,13.40
2023-10-02T10:35:13.827Z,13.40
2023-10-02T10:37:50.781Z,13.10
2023-10-02T10:40:45.498Z,13.40
2023-10-02T10:43:14.329Z,13.40
2023-10-02T10:45:42.623Z,13.40
2023-10-02T10:48:20.619Z,13.40
2023-10-02T10:50:58.343Z,13.40
2023-10-02T10:53:27.893Z,13.50
2023-10-02T10:55:58.493Z,13.40
2023-10-02T10:58:32.872Z,13.40
2023-10-02T11:01:03.415Z,13.40
2023-10-02T11:03:32.862Z,13.30
2023-10-02T11:06:02.833Z,13.40
2023-10-02T11:08:38.965Z,13.40
2023-10-02T11:11:10.846Z,13.40
2023-10-02T11:13:52.558Z,13.30
2023-10-02T11:16:36.191Z,13.40
2023-10-02T11:19:23.407Z,13.50
2023-10-02T11:22:18.726Z,13.40
2023-10-02T11:24:50.889Z,13.40
2023-10-02T11:27:19.611Z,13.40
2023-10-02T11:30:03.100Z,13.50
2023-10-02T11:32:55.205Z,13.50
2023-10-02T11:35:30.407Z,13.60
2023-10-02T11:38:00.671Z,13.60
2023-10-02T11:40:30.780Z,13.60
2023-10-02T11:43:01.381Z,13.70
2023-10-02T11:45:30.862Z,13.60
2023-10-02T11:47:59.776Z,13.60
2023-10-02T11:50:28.128Z,13.60
2023-10-02T11:52:56.861Z,13.70
2023-10-02T11:55:25.994Z,13.80
2023-10-02T11:57:55.815Z,13.90
2023-10-02T12:00:25.575Z,14.00
2023-10-02T12:02:54.152Z,13.90
2023-10-02T12:05:24.183Z,13.90
2023-10-02T12:07:52.526Z,13.90
2023-10-02T12:10:20.785Z,13.90
2023-10-02T12:12:49.095Z,13.90
2023-10-02T12:15:20.807Z,13.90
2023-10-02T12:17:49.320Z,13.90
2023-10-02T12:20:20.602Z,14.00
2023-10-02T12:22:49.363Z,13.90
2023-10-02T12:25:17.673Z,14.00
2023-10-02T12:27:46.238Z,13.90
2023-10-02T12:30:14.911Z,13.90
2023-10-02T12:32:47.316Z,14.00
2023-10-02T12:35:18.276Z,14.00
2023-10-02T12:37:46.899Z,14.00
2023-10-02T12:40:20.137Z,14.00
2023-10-02T12:42:48.573Z,14.00
2023-10-02T12:45:16.964Z,14.00
2023-10-02T12:47:46.678Z,13.90
2023-10-02T12:50:15.114Z,13.90
2023-10-02T12:52:43.294Z,13.80
2023-10-02T12:55:12.106Z,13.80
2023-10-02T12:57:43.224Z,13.80
2023-10-02T13:00:19.376Z,13.80
2023-10-02T13:02:50.022Z,13.90
2023-10-02T13:05:21.402Z,13.90
2023-10-02T13:07:52.193Z,13.90
2023-10-02T13:10:20.551Z,13.90
2023-10-02T13:12:49.008Z,13.90
2023-10-02T13:15:17.320Z,13.90
2023-10-02T13:17:45.894Z,13.90
2023-10-02T13:20:15.706Z,13.90
2023-10-02T13:22:43.913Z,13.90
2023-10-02T13:25:14.425Z,13.90
2023-10-02T13:27:42.637Z,13.80
2023-10-02T13:30:12.658Z,13.90
2023-10-02T13:32:42.219Z,13.90
2023-10-02T13:35:12.208Z,13.90
2023-10-02T13:37:42.018Z,13.80
2023-10-02T13:40:27.456Z,13.80
2023-10-02T13:42:55.885Z,13.90
2023-10-02T13:45:26.140Z,13.80
2023-10-02T13:47:55.146Z,13.90
2023-10-02T13:50:23.780Z,13.80
2023-10-02T13:52:55.469Z,13.80
2023-10-02T13:55:24.963Z,13.80
2023-10-02T13:57:53.901Z,13.80
2023-10-02T14:00:22.600Z,13.80
2023-10-02T14:02:50.972Z,13.80
2023-10-02T14:05:20.473Z,13.80
2023-10-02T14:07:49.006Z,13.80
2023-10-02T14:10:19.694Z,13.80
2023-10-02T14:12:48.027Z,13.80
2023-10-02T14:15:18.038Z,13.80
2023-10-02T14:17:46.725Z,13.80
2023-10-02T14:20:16.491Z,13.80
2023-10-02T14:22:46.135Z,13.80
2023-10-02T14:25:15.864Z,13.90
2023-10-02T14:27:47.221Z,13.90
2023-10-02T14:30:17.190Z,13.80
2023-10-02T14:32:48.204Z,13.90
2023-10-02T14:35:17.485Z,13.90
2023-10-02T14:37:49.811Z,14.00
2023-10-02T14:40:21.187Z,14.10
2023-10-02T14:42:51.288Z,14.10
2023-10-02T14:45:19.482Z,14.10
2023-10-02T14:47:48.003Z,14.10
2023-10-02T14:50:18.499Z,14.10
2023-10-02T14:52:47.576Z,14.00
2023-10-02T14:55:19.368Z,14.00
2023-10-02T14:57:51.855Z,14.00
2023-10-02T15:00:22.647Z,14.00
2023-10-02T15:02:52.259Z,14.00
2023-10-02T15:05:23.959Z,14.00
2023-10-02T15:07:53.603Z,14.00
2023-10-02T15:10:22.669Z,13.90
2023-10-02T15:12:54.204Z,13.90
2023-10-02T15:15:23.626Z,13.90
2023-10-02T15:17:52.636Z,13.90
2023-10-02T15:20:23.043Z,13.90
2023-10-02T15:22:51.813Z,13.90
2023-10-02T15:25:20.502Z,13.90
2023-10-02T15:27:49.929Z,13.90
2023-10-02T15:30:20.633Z,13.80
2023-10-02T15:32:50.829Z,13.80
2023-10-02T15:35:21.403Z,13.80
2023-10-02T15:37:50.896Z,13.80
2023-10-02T15:40:22.272Z,13.80
2023-10-02T15:42:51.453Z,13.80
2023-10-02T15:45:24.555Z,13.70
2023-10-02T15:47:53.565Z,13.80
2023-10-02T15:50:24.107Z,13.80
2023-10-02T15:52:53.450Z,13.80
2023-10-02T15:55:22.303Z,13.90
2023-10-02T15:57:51.141Z,13.80
2023-10-02T16:00:23.299Z,13.80
2023-10-02T16:02:53.588Z,13.80
2023-10-02T16:05:22.747Z,13.80
2023-10-02T16:07:55.278Z,13.80
2023-10-02T16:10:24.181Z,13.80
2023-10-02T16:12:53.529Z,13.80
2023-10-02T16:15:24.864Z,13.80
2023-10-02T16:17:55.041Z,13.70
2023-10-02T16:20:25.169Z,13.70
2023-10-02T16:22:58.358Z,13.70
2023-10-02T16:25:29.226Z,13.70
2023-10-02T16:27:57.633Z,13.70
2023-10-02T16:30:28.659Z,13.60
2023-10-02T16:32:57.345Z,13.70
2023-10-02T16:35:31.749Z,13.70
2023-10-02T16:38:03.896Z,13.70
2023-10-02T16:40:34.106Z,13.70
2023-10-02T16:43:05.819Z,13.70
2023-10-02T16:45:36.196Z,13.80
2023-10-02T16:48:06.435Z,13.80
2023-10-02T16:50:34.979Z,13.80
2023-10-02T16:53:03.746Z,13.80
2023-10-02T16:55:32.165Z,13.80
2023-10-02T16:58:01.629Z,13.80
2023-10-02T17:00:29.965Z,13.80
2023-10-02T17:02:59.965Z,13.80
2023-10-02T17:05:29.656Z,13.80
2023-10-02T17:07:59.641Z,13.80
2023-10-02T17:10:31.051Z,13.90
2023-10-02T17:13:00.854Z,13.90
2023-10-02T17:15:30.679Z,13.90
2023-10-02T17:18:02.904Z,13.90
2023-10-02T17:20:31.325Z,13.80
2023-10-02T17:23:00.951Z,13.90
2023-10-02T17:25:30.159Z,13.90
2023-10-02T17:28:01.290Z,13.90
2023-10-02T17:30:32.745Z,13.80
2023-10-02T17:33:03.950Z,13.80
2023-10-02T17:35:32.383Z,13.80
2023-10-02T17:38:01.459Z,13.80
2023-10-02T17:40:29.699Z,13.80
2023-10-02T17:42:58.012Z,13.80
2023-10-02T17:45:26.483Z,13.80
2023-10-02T17:47:54.889Z,13.80
2023-10-02T17:50:25.953Z,13.80
2023-10-02T17:52:54.373Z,13.80
2023-10-02T17:55:23.089Z,13.80
2023-10-02T17:57:51.385Z,13.70
2023-10-02T18:00:20.012Z,13.80
2023-10-02T18:02:48.743Z,13.70
2023-10-02T18:05:17.412Z,13.80
2023-10-02T18:07:47.433Z,13.70
2023-10-02T18:10:16.800Z,13.70
2023-10-02T18:12:45.871Z,13.70
2023-10-02T18:15:15.970Z,13.70
2023-10-02T18:17:44.775Z,13.60
2023-10-02T18:20:14.282Z,13.60
2023-10-02T18:22:42.537Z,13.60
2023-10-02T18:25:13.498Z,13.50
2023-10-02T18:27:41.862Z,13.50
2023-10-02T18:30:11.104Z,13.50
2023-10-02T18:32:39.639Z,13.50
2023-10-02T18:35:09.324Z,13.50
2023-10-02T18:37:37.701Z,13.50
2023-10-02T18:40:09.997Z,13.50
2023-10-02T18:42:39.942Z,13.50
2023-10-02T18:45:08.601Z,13.50
2023-10-02T18:47:36.822Z,13.40
2023-10-02T18:50:09.128Z,13.40
2023-10-02T18:52:38.486Z,13.40
2023-10-02T18:55:08.135Z,13.40
2023-10-02T18:57:41.478Z,13.40
2023-10-02T19:00:13.414Z,13.40
2023-10-02T19:02:41.914Z,13.30
2023-10-02T19:05:10.925Z,13.30
2023-10-02T19:07:40.001Z,13.20
2023-10-02T19:10:09.256Z,13.20
2023-10-02T19:12:38.681Z,13.10
2023-10-02T19:15:10.953Z,13.10
2023-10-02T19:17:39.499Z,13.00
2023-10-02T19:20:08.552Z,13.00
2023-10-02T19:22:39.097Z,12.90
2023-10-02T19:25:07.630Z,12.90
2023-10-02T19:27:35.844Z,12.80
2023-10-02T19:30:04.898Z,12.90
2023-10-02T19:32:34.767Z,12.80
2023-10-02T19:35:03.107Z,12.80
2023-10-02T19:37:33.165Z,12.80
2023-10-02T19:40:02.020Z,12.90
2023-10-02T19:42:30.267Z,12.80
2023-10-02T19:44:58.460Z,12.80
2023-10-02T19:47:26.751Z,12.80
2023-10-02T19:49:57.208Z,12.80
2023-10-02T19:52:27.153Z,12.80
2023-10-02T19:54:55.864Z,12.80
2023-10-02T19:57:28.020Z,12.70
2023-10-02T19:59:58.153Z,12.70
2023-10-02T20:02:27.895Z,12.70
2023-10-02T20:04:59.022Z,12.70
2023-10-02T20:07:27.739Z,12.60
2023-10-02T20:09:59.995Z,12.50
2023-10-02T20:12:29.247Z,12.50
2023-10-02T20:15:00.679Z,12.50
2023-10-02T20:17:29.216Z,12.50
2023-10-02T20:20:02.434Z,12.50
2023-10-02T20:22:32.687Z,12.50
2023-10-02T20:25:07.916Z,12.40
2023-10-02T20:27:36.247Z,12.40
2023-10-02T20:30:05.255Z,12.40
2023-10-02T20:32:33.666Z,12.40
2023-10-02T20:35:08.301Z,12.40
2023-10-02T20:37:36.776Z,12.40
2023-10-02T20:40:07.062Z,12.40
2023-10-02T20:42:36.399Z,12.50
2023-10-02T20:45:04.925Z,12.40
2023-10-02T20:47:33.232Z,12.40
2023-10-02T20:50:09.077Z,12.40
2023-10-02T20:52:37.457Z,12.30
2023-10-02T20:55:07.019Z,12.30
2023-10-02T20:57:37.167Z,12.30
2023-10-02T21:00:08.462Z,12.30
2023-10-02T21:02:36.840Z,12.30
2023-10-02T21:05:09.012Z,12.20
2023-10-02T21:07:37.662Z,12.20
2023-10-02T21:10:06.288Z,12.20
2023-10-02T21:12:34.672Z,12.10
2023-10-02T21:15:06.218Z,12.10
2023-10-02T21:17:34.522Z,12.10
2023-10-02T21:20:04.091Z,12.10
2023-10-02T21:22:33.826Z,12.00
2023-10-02T21:25:02.374Z,12.00
2023-10-02T21:27:31.013Z,12.00
2023-10-02T21:29:59.298Z,12.00
2023-10-02T21:32:27.568Z,12.00
2023-10-02T21:34:56.110Z,12.00
2023-10-02T21:37:25.812Z,11.90
2023-10-02T21:39:55.410Z,11.90
2023-10-02T21:42:24.361Z,11.90
2023-10-02T21:44:52.936Z,11.80
2023-10-02T21:47:24.843Z,11.90
2023-10-02T21:49:53.214Z,11.80
2023-10-02T21:52:21.516Z,11.70
2023-10-02T21:54:55.698Z,11.70
2023-10-02T21:57:25.851Z,11.70
2023-10-02T21:59:54.412Z,11.70
2023-10-02T22:02:22.738Z,11.70
2023-10-02T22:04:50.985Z,11.70
2023-10-02T22:07:19.196Z,11.70
2023-10-02T22:09:50.607Z,11.70
2023-10-02T22:12:23.314Z,11.70
2023-10-02T22:14:53.089Z,11.60
2023-10-02T22:17:24.731Z,11.60
2023-10-02T22:19:53.231Z,11.60
2023-10-02T22:22:25.480Z,11.60
2023-10-02T22:24:54.087Z,11.60
2023-10-02T22:27:22.231Z,11.50
2023-10-02T22:29:56.635Z,11.50
2023-10-02T22:32:28.688Z,11.50
2023-10-02T22:34:57.769Z,11.50
2023-10-02T22:37:26.029Z,11.50
2023-10-02T22:39:57.364Z,11.40
2023-10-02T22:42:26.349Z,11.50
2023-10-02T22:44:54.602Z,11.40
2023-10-02T22:47:22.981Z,11.40
2023-10-02T22:49:52.559Z,11.30
2023-10-02T22:52:23.362Z,11.30
2023-10-02T22:54:52.829Z,11.30
2023-10-02T22:57:21.205Z,11.30
2023-10-02T22:59:55.404Z,11.30
2023-10-02T23:02:23.730Z,11.30
2023-10-02T23:04:55.910Z,11.30
2023-10-02T23:07:24.115Z,11.20
2023-10-02T23:09:52.616Z,11.20
2023-10-02T23:12:20.939Z,11.20
2023-10-02T23:14:50.451Z,11.20
2023-10-02T23:17:18.943Z,11.10
2023-10-02T23:19:47.247Z,11.10
2023-10-02T23:22:17.025Z,11.10
2023-10-02T23:24:47.454Z,11.00
2023-10-02T23:27:15.886Z,11.00
2023-10-02T23:29:44.309Z,11.00
2023-10-02T23:32:16.110Z,11.00
2023-10-02T23:34:46.773Z,10.90
2023-10-02T23:37:16.428Z,10.90
2023-10-02T23:39:44.738Z,10.90
2023-10-02T23:42:16.378Z,10.90
2023-10-02T23:44:47.197Z,10.90
2023-10-02T23:47:17.361Z,10.80
2023-10-02T23:49:45.653Z,10.80
2023-10-02T23:52:15.467Z,10.70
2023-10-02T23:54:46.932Z,10.70
2023-10-02T23:57:15.337Z,10.70
2023-10-02T23:59:47.769Z,10.70
